NCAR-RAP Real-Time Weather Data

Output produced by METARs form (06 May 2021  15:47 UTC)
found at http://weather.rap.ucar.edu/surface/
 
KMSO 061453Z 23005KT 10SM CLR 10/01 A3013 RMK AO2 SLP198 T01000006 56002
KMSO 061353Z 28003KT 10SM CLR 07/01 A3013 RMK AO2 SLP198 T00720006
KMSO 061253Z 00000KT 10SM CLR 04/01 A3013 RMK AO2 SLP201 T00390006
KMSO 061153Z 00000KT 10SM CLR 04/00 A3013 RMK AO2 SLP203 T00440000 10139 20044 56004
KMSO 061053Z AUTO 00000KT 10SM CLR 07/M01 A3014 RMK AO2 SLP201 T00671006
KMSO 060953Z AUTO 13007KT 10SM CLR 08/M01 A3014 RMK AO2 SLP201 T00781011
KMSO 060853Z AUTO 12009KT 10SM CLR 10/M01 A3014 RMK AO2 SLP202 T01001006 56005
KMSO 060753Z AUTO 13013KT 10SM CLR 13/M02 A3015 RMK AO2 SLP203 T01331022
KMSO 060653Z AUTO 12009KT 10SM CLR 13/M01 A3014 RMK AO2 SLP201 T01281011 402060017
KMSO 060553Z AUTO 13004KT 10SM CLR 12/00 A3016 RMK AO2 SLP208 T01220000 10206 20111 50007
KMSO 060453Z AUTO 33003KT 10SM CLR 12/01 A3017 RMK AO2 SLP216 T01170006
KMSO 060353Z AUTO 24003KT 10SM CLR 12/01 A3016 RMK AO2 SLP216 T01220006
KMSO 060253Z 00000KT 10SM CLR 17/M01 A3014 RMK AO2 SLP205 T01671006 55001
KMSO 060153Z 00000KT 10SM CLR 20/M02 A3012 RMK AO2 SLP198 T02001017